createdAt,value
2023-03-22T00:02:02.760Z,6.95
2023-03-22T00:04:34.424Z,6.90
2023-03-22T00:07:06.147Z,6.95
2023-03-22T00:09:37.829Z,6.68
2023-03-22T00:12:09.706Z,6.95
2023-03-22T00:14:41.520Z,7.25
2023-03-22T00:17:13.202Z,7.18
2023-03-22T00:19:45.028Z,6.70
2023-03-22T00:22:17.788Z,6.75
2023-03-22T00:24:49.480Z,6.90
2023-03-22T00:27:21.158Z,6.40
2023-03-22T00:29:53.200Z,6.13
2023-03-22T00:32:24.894Z,7.80
2023-03-22T00:34:58.862Z,5.80
2023-03-22T00:37:38.811Z,6.40
2023-03-22T00:40:14.245Z,6.25
2023-03-22T00:42:46.094Z,6.10
2023-03-22T00:45:17.808Z,5.50
2023-03-22T00:47:49.545Z,6.43
2023-03-22T00:50:23.209Z,6.00
2023-03-22T00:52:55.067Z,6.10
2023-03-22T00:55:27.865Z,6.47
2023-03-22T00:57:59.667Z,5.75
2023-03-22T01:00:33.628Z,6.20
2023-03-22T01:03:05.594Z,5.95
2023-03-22T01:05:37.765Z,6.32
2023-03-22T01:08:10.554Z,5.47
2023-03-22T01:10:43.802Z,5.72
2023-03-22T01:13:17.851Z,6.00
2023-03-22T01:15:51.168Z,6.07
2023-03-22T01:18:23.456Z,6.40
2023-03-22T01:20:55.408Z,5.93
2023-03-22T01:23:27.618Z,5.97
2023-03-22T01:25:59.811Z,6.55
2023-03-22T01:28:31.596Z,6.32
2023-03-22T01:31:04.079Z,6.72
2023-03-22T01:33:36.732Z,6.68
2023-03-22T01:36:08.688Z,6.78
2023-03-22T01:38:41.016Z,6.50
2023-03-22T01:41:12.934Z,6.28
2023-03-22T01:44:13.733Z,6.80
2023-03-22T01:46:47.829Z,6.65
2023-03-22T01:49:31.219Z,6.57
2023-03-22T01:52:14.685Z,6.18
2023-03-22T01:54:55.011Z,6.70
2023-03-22T01:57:40.932Z,6.53
2023-03-22T02:00:19.005Z,6.88
2023-03-22T02:03:19.012Z,6.57
2023-03-22T02:05:53.965Z,6.82
2023-03-22T02:08:29.061Z,6.60
2023-03-22T02:11:04.815Z,6.50
2023-03-22T02:13:51.816Z,6.75
2023-03-22T02:17:01.217Z,5.72
2023-03-22T02:19:45.564Z,6.00
2023-03-22T02:22:42.371Z,5.95
2023-03-22T02:25:51.941Z,6.15
2023-03-22T02:28:54.327Z,5.97
2023-03-22T02:31:51.184Z,5.90
2023-03-22T02:34:44.342Z,5.68
2023-03-22T02:37:37.724Z,5.80
2023-03-22T02:40:18.688Z,6.25
2023-03-22T02:43:08.324Z,6.10
2023-03-22T02:45:55.637Z,6.55
2023-03-22T02:48:32.486Z,5.93
2023-03-22T02:51:13.424Z,6.38
2023-03-22T02:53:57.955Z,6.40
2023-03-22T02:56:39.213Z,6.68
2023-03-22T02:59:15.965Z,7.22
2023-03-22T03:01:52.316Z,7.75
2023-03-22T03:04:37.477Z,6.78
2023-03-22T03:09:49.153Z,6.03
2023-03-22T03:12:26.189Z,6.30
2023-03-22T03:15:00.529Z,6.43
2023-03-22T03:17:35.190Z,6.75
2023-03-22T03:23:07.323Z,6.32
2023-03-22T03:26:01.603Z,6.65
2023-03-22T03:29:05.669Z,7.13
2023-03-22T03:31:46.403Z,6.80
2023-03-22T03:34:36.272Z,6.50
2023-03-22T03:37:15.066Z,7.07
2023-03-22T03:40:01.696Z,7.40
2023-03-22T03:42:34.530Z,6.38
2023-03-22T03:45:08.469Z,6.35
2023-03-22T03:47:41.052Z,6.60
2023-03-22T03:50:16.206Z,7.18
2023-03-22T03:52:52.366Z,6.70
2023-03-22T03:55:27.168Z,6.07
2023-03-22T03:57:58.988Z,6.22
2023-03-22T04:00:31.133Z,6.72
2023-03-22T04:03:31.503Z,6.25
2023-03-22T04:06:18.088Z,7.20
2023-03-22T04:08:56.684Z,6.53
2023-03-22T04:11:32.767Z,6.32
2023-03-22T04:14:07.083Z,6.45
2023-03-22T04:16:38.810Z,6.88
2023-03-22T04:19:14.554Z,6.82
2023-03-22T04:21:46.355Z,6.80
2023-03-22T04:24:18.129Z,6.25
2023-03-22T04:26:52.706Z,6.87
2023-03-22T04:29:32.121Z,6.90
2023-03-22T04:32:19.523Z,6.70
2023-03-22T04:34:52.680Z,7.18
2023-03-22T04:37:27.161Z,6.60
2023-03-22T04:40:16.545Z,6.13
2023-03-22T04:43:05.092Z,6.25
2023-03-22T04:46:01.736Z,6.50
2023-03-22T04:48:41.748Z,6.68
2023-03-22T04:51:16.118Z,6.72
2023-03-22T04:54:00.319Z,6.57
2023-03-22T04:56:32.134Z,7.10
2023-03-22T04:59:04.629Z,6.32
2023-03-22T05:01:37.581Z,6.93
2023-03-22T05:04:21.934Z,6.90
2023-03-22T05:06:58.453Z,6.53
2023-03-22T05:09:37.709Z,6.80
2023-03-22T05:12:09.500Z,7.50
2023-03-22T05:14:51.448Z,6.38
2023-03-22T05:17:27.924Z,6.72
2023-03-22T05:20:09.317Z,6.47
2023-03-22T05:22:45.315Z,6.78
2023-03-22T05:25:17.032Z,6.80
2023-03-22T05:27:54.168Z,6.80
2023-03-22T05:30:52.073Z,6.30
2023-03-22T05:33:34.781Z,7.05
2023-03-22T05:36:08.952Z,6.78
2023-03-22T05:38:52.434Z,6.25
2023-03-22T05:41:24.500Z,6.97
2023-03-22T05:43:56.371Z,7.05
2023-03-22T05:46:28.468Z,6.78
2023-03-22T05:49:31.803Z,6.63
2023-03-22T05:52:06.080Z,7.03
2023-03-22T05:54:56.822Z,6.97
2023-03-22T05:57:30.156Z,6.55
2023-03-22T06:00:02.594Z,6.32
2023-03-22T06:02:47.295Z,7.05
2023-03-22T06:05:21.069Z,6.93
2023-03-22T06:10:28.122Z,6.72
2023-03-22T06:13:00.418Z,5.90
2023-03-22T06:15:36.214Z,5.80
2023-03-22T06:18:28.279Z,6.32
2023-03-22T06:21:07.401Z,5.40
2023-03-22T06:23:39.235Z,6.05
2023-03-22T06:26:13.300Z,6.60
2023-03-22T06:28:46.893Z,5.78
2023-03-22T06:31:18.706Z,5.60
2023-03-22T06:33:57.734Z,6.05
2023-03-22T06:36:36.029Z,5.93
2023-03-22T06:39:17.872Z,5.30
2023-03-22T06:41:50.720Z,5.45
2023-03-22T06:44:22.999Z,5.22
2023-03-22T06:47:10.556Z,5.82
2023-03-22T06:49:58.814Z,5.32
2023-03-22T06:52:42.173Z,5.65
2023-03-22T06:55:13.951Z,5.10
2023-03-22T06:57:45.678Z,5.25
2023-03-22T07:00:17.708Z,6.72
2023-03-22T07:02:52.231Z,5.50
2023-03-22T07:05:41.104Z,6.15
2023-03-22T07:08:12.933Z,5.00
2023-03-22T07:10:53.021Z,4.95
2023-03-22T07:13:28.792Z,5.07
2023-03-22T07:16:05.216Z,4.88
2023-03-22T07:18:58.256Z,4.93
2023-03-22T07:21:30.052Z,5.05
2023-03-22T07:24:07.803Z,4.80
2023-03-22T07:26:40.958Z,5.07
2023-03-22T07:29:14.464Z,4.20
2023-03-22T07:31:46.265Z,4.07
2023-03-22T07:34:28.180Z,4.10
2023-03-22T07:37:07.414Z,4.00
2023-03-22T07:39:39.520Z,4.00
2023-03-22T07:42:11.826Z,4.15
2023-03-22T07:44:52.517Z,3.80
2023-03-22T07:47:39.520Z,3.63
2023-03-22T07:50:23.791Z,3.67
2023-03-22T07:53:00.377Z,4.20
2023-03-22T07:55:32.226Z,3.70
2023-03-22T07:58:04.481Z,3.65
2023-03-22T08:00:36.234Z,6.40
2023-03-22T08:03:43.025Z,3.67
2023-03-22T08:06:37.185Z,3.13
2023-03-22T08:09:09.146Z,3.30
2023-03-22T08:11:41.298Z,3.00
2023-03-22T08:14:13.931Z,4.00
2023-03-22T08:16:46.438Z,2.78
2023-03-22T08:19:18.640Z,3.53
2023-03-22T08:21:51.573Z,3.17
2023-03-22T08:24:49.138Z,3.05
2023-03-22T08:30:06.800Z,3.30
2023-03-22T08:32:41.384Z,3.70
2023-03-22T08:35:13.349Z,3.33
2023-03-22T08:37:46.191Z,2.92
2023-03-22T08:40:19.403Z,3.30
2023-03-22T08:42:56.790Z,3.40
2023-03-22T08:45:29.109Z,2.78
2023-03-22T08:48:09.664Z,2.60
2023-03-22T08:51:01.144Z,2.80
2023-03-22T08:53:42.102Z,2.97
2023-03-22T08:56:49.234Z,2.60
2023-03-22T08:59:41.147Z,2.80
2023-03-22T09:02:27.502Z,2.75
2023-03-22T09:05:00.561Z,2.93
2023-03-22T09:07:32.479Z,2.63
2023-03-22T09:10:16.801Z,3.45
2023-03-22T09:12:51.399Z,3.08
2023-03-22T09:15:23.272Z,2.80
2023-03-22T09:18:09.598Z,2.90
2023-03-22T09:20:41.592Z,3.08
2023-03-22T09:23:15.548Z,2.42
2023-03-22T09:25:48.678Z,2.00
2023-03-22T09:28:25.340Z,2.05
2023-03-22T09:31:03.451Z,2.00
2023-03-22T09:33:38.847Z,2.15
2023-03-22T09:36:11.989Z,2.15
2023-03-22T09:38:45.403Z,2.47
2023-03-22T09:43:59.775Z,2.38
2023-03-22T09:46:38.839Z,2.10
2023-03-22T09:49:26.186Z,2.22
2023-03-22T09:51:59.995Z,2.05
2023-03-22T09:54:35.941Z,2.58
2023-03-22T09:57:16.324Z,2.25
2023-03-22T10:00:15.609Z,3.08
2023-03-22T10:03:02.642Z,2.50
2023-03-22T10:05:48.283Z,3.25
2023-03-22T10:08:48.326Z,3.47
2023-03-22T10:11:32.033Z,2.75
2023-03-22T10:14:09.432Z,2.30
2023-03-22T10:16:41.806Z,2.28
2023-03-22T10:19:29.076Z,1.90
2023-03-22T10:22:04.057Z,2.30
2023-03-22T10:24:38.453Z,2.20
2023-03-22T10:27:17.423Z,2.15
2023-03-22T10:29:54.900Z,2.00
2023-03-22T10:32:57.500Z,1.92
2023-03-22T10:35:31.735Z,1.73
2023-03-22T10:38:07.370Z,2.58
2023-03-22T10:40:42.222Z,2.60
2023-03-22T10:43:30.121Z,2.20
2023-03-22T10:46:07.648Z,2.03
2023-03-22T10:48:45.538Z,2.00
2023-03-22T10:51:30.729Z,87.90
2023-03-22T10:54:03.367Z,78.60
2023-03-22T10:56:35.035Z,78.50
2023-03-22T10:59:06.789Z,79.30
2023-03-22T11:01:44.899Z,79.43
2023-03-22T11:04:17.181Z,76.80
2023-03-22T11:06:53.347Z,79.17
2023-03-22T11:09:26.472Z,74.30
2023-03-22T11:12:01.480Z,73.87
2023-03-22T11:14:36.870Z,70.90
2023-03-22T11:17:14.246Z,73.17
2023-03-22T11:20:01.288Z,70.80
2023-03-22T11:22:45.370Z,72.13
2023-03-22T11:25:28.419Z,70.50
2023-03-22T11:28:16.746Z,73.60
2023-03-22T11:31:08.740Z,75.10
2023-03-22T11:33:58.208Z,74.20
2023-03-22T11:36:30.022Z,72.63
2023-03-22T11:39:07.386Z,71.23
2023-03-22T11:41:40.866Z,74.87
2023-03-22T11:44:16.610Z,73.97
2023-03-22T11:47:00.770Z,72.63
2023-03-22T11:49:45.563Z,68.40
2023-03-22T11:52:22.916Z,67.43
2023-03-22T11:54:56.234Z,67.43
2023-03-22T11:57:31.547Z,65.80
2023-03-22T12:00:18.211Z,71.83
2023-03-22T12:02:54.941Z,66.07
2023-03-22T12:05:41.465Z,68.93
2023-03-22T12:08:25.307Z,67.33
2023-03-22T12:11:17.831Z,67.30
2023-03-22T12:14:00.097Z,67.77
2023-03-22T12:16:41.029Z,64.40
2023-03-22T12:19:41.835Z,65.53
2023-03-22T12:22:23.201Z,66.20
2023-03-22T12:24:54.879Z,63.87
2023-03-22T12:27:42.588Z,65.50
2023-03-22T12:30:22.027Z,67.30
2023-03-22T12:33:00.116Z,64.30
2023-03-22T12:35:35.184Z,62.00
2023-03-22T12:38:36.735Z,66.13
2023-03-22T12:41:14.891Z,63.23
2023-03-22T12:43:56.609Z,59.93
2023-03-22T12:46:40.102Z,64.73
2023-03-22T12:49:44.350Z,58.63
2023-03-22T12:52:19.056Z,62.17
2023-03-22T12:54:52.576Z,44.33
2023-03-22T12:57:24.575Z,2.08
2023-03-22T13:00:00.446Z,1.50
2023-03-22T13:02:34.359Z,1.42
2023-03-22T13:05:09.372Z,1.40
2023-03-22T13:07:47.086Z,11.25
2023-03-22T13:10:31.205Z,64.20
2023-03-22T13:13:14.764Z,67.20
2023-03-22T13:16:09.621Z,59.13
2023-03-22T13:21:19.310Z,57.22
2023-03-22T13:24:01.994Z,59.53
2023-03-22T13:26:43.679Z,59.70
2023-03-22T13:29:17.609Z,58.67
2023-03-22T13:31:52.374Z,60.55
2023-03-22T13:34:32.214Z,56.57
2023-03-22T13:37:09.935Z,57.30
2023-03-22T13:39:41.698Z,58.20
2023-03-22T13:42:20.015Z,60.90
2023-03-22T13:44:57.066Z,56.17
2023-03-22T13:47:36.176Z,56.87
2023-03-22T13:50:23.476Z,55.83
2023-03-22T13:53:15.785Z,58.07
2023-03-22T13:55:51.416Z,58.17
2023-03-22T13:58:49.989Z,58.60
2023-03-22T14:01:29.370Z,59.70
2023-03-22T14:04:06.887Z,53.57
2023-03-22T14:06:54.251Z,56.37
2023-03-22T14:09:35.868Z,54.57
2023-03-22T14:12:21.245Z,57.27
2023-03-22T14:14:57.055Z,58.90
2023-03-22T14:17:47.051Z,53.90
2023-03-22T14:20:23.388Z,57.23
